Tracy, Canada
Current Conditions -  °F | °C
As of 6:00 PM on Thursday 23 Oct 2014 (Local Time) from CYRQ Reporting Station
Light Rain Light Rain  
Wind Chill: 40°   Ceiling: 9100
Heat Index: 45°   Visibility: 8mi
Dew Point: 43°   Wind: 9mph
Humidity: 93%   Direction: 70°ENE
Pressure: 30.03"   Gusts: NA
Location:  46.02°N, 73.17°W
Report Text: CYRQ 232200Z AUTO 07008KT 8SM -RA SCT047 SCT055 OVC091 07/06 A3003 RMK PCPN 1.0MM PAST HR SLP171
Loading
Personal Weather Stations






























Interactive Weather Map
Tropical Storm Tracking
New forecast layout! Learn more

10-Day Weather Forecast

Advertisements
Track Severe Weather on mobile